Aérodrome :
LOGIN :

S'inscrire | Disclaimer

   EN    FR    IT 

 










Légende :    VFR   VFR Marginal   IFR   IFR Intensif   IFR Très Intensif
Visi : 
Plafond : 
>= 8 km
>= 3000ft
5 à 8 km
1000 à 3000 ft
1500m à 5 km
500 à 1000 ft
800 à 1500m
200 à 500 ft
< 800m
< 200 ft
Symboles :   Orages  Brouillard  Fortes neiges  Fortes précipitations  Vent > 20 kt
SIGMETs :   Divers  Orages  Givrage  Turbulence  Onde Orograph.  Cendres Volcan.






- Altitude de l'aérodrome : 821 ft
- Code IATA : LYS


LFLL - Lyon St Exupéry / Satolas

DERNIER METAR :
  • 231430Z 19023KT 9999 FEW046 SCT056 BKN076 07/02 Q0997 NOSIG

METARs EXPIRÉS :
  • 231400Z 19022KT 9999 FEW038TCU SCT056 BKN073 07/02 Q0997 NOSIG
  • 231330Z 20018KT 9999 FEW033TCU SCT046 BKN053 08/02 Q0997 NOSIG
  • 231300Z 19019KT 9999 FEW036 SCT053 BKN093 07/01 Q0997 NOSIG
  • 231230Z 18016KT 9999 FEW036 SCT053 BKN093 06/02 Q0998 NOSIG
  • 231200Z 19012KT 9999 FEW036 SCT046 BKN093 06/01 Q0999 NOSIG

TAF TAF LFLL
Valide du 23 à 12h jusqu'au 24 à 18h UTC


231100Z 2312/2418 18015KT 9999 SCT040
PROB40
TEMPO 2312/2319 20020G35KT 4000 SHRA SCT025TCU BKN040
PROB40
TEMPO 2317/2321 27015G28KT
BECMG 2321/2324 35008KT
TEMPO 2402/2410 BKN014
BECMG 2412/2415 16006KT BKN020



MET'MAP, la Météo Aéronautique d'un coup d'oeil ! - Copyright ORBIFLY Décembre 2007 - Disclaimer

ORBIFLY MET'MAP TEAM :

Programmation & Développement : Alexandra Zaïnal
Sur une idée originale de : Baudouin d'Aumeries
Assistance à la programmation : Marc-Olivier Méhu
Soutien technique & logistique : Manuel Goepfert

Contact : metmap@orbifly.com




SOURCES & CREDITS :

   NOAA